createdAt,value
2022-10-07T00:02:02.968Z,4.72
2022-10-07T00:06:56.182Z,4.45
2022-10-07T00:11:49.448Z,4.82
2022-10-07T00:16:43.196Z,4.40
2022-10-07T00:21:39.185Z,12.45
2022-10-07T00:26:34.808Z,8.65
2022-10-07T00:31:30.083Z,8.70
2022-10-07T00:36:25.359Z,7.63
2022-10-07T00:41:22.008Z,6.07
2022-10-07T00:46:24.302Z,6.10
2022-10-07T00:51:17.847Z,4.78
2022-10-07T00:56:11.481Z,4.82
2022-10-07T01:01:06.503Z,4.55
2022-10-07T01:06:00.881Z,4.70
2022-10-07T01:11:03.986Z,4.65
2022-10-07T01:16:04.835Z,5.45
2022-10-07T01:21:07.483Z,4.97
2022-10-07T01:26:24.071Z,4.55
2022-10-07T01:31:24.009Z,4.70
2022-10-07T01:36:21.580Z,4.85
2022-10-07T01:41:17.605Z,5.20
2022-10-07T01:46:19.418Z,4.40
2022-10-07T01:51:13.184Z,5.07
2022-10-07T01:56:25.608Z,5.45
2022-10-07T02:01:28.031Z,4.55
2022-10-07T02:06:33.704Z,4.50
2022-10-07T02:11:30.796Z,4.88
2022-10-07T02:16:36.593Z,4.80
2022-10-07T02:21:35.919Z,4.80
2022-10-07T02:26:31.820Z,5.45
2022-10-07T02:31:30.578Z,4.93
2022-10-07T02:36:32.267Z,5.00
2022-10-07T02:46:44.003Z,8.70
2022-10-07T02:51:42.673Z,5.95
2022-10-07T02:56:39.082Z,6.70
2022-10-07T03:01:42.271Z,6.00
2022-10-07T03:06:38.167Z,6.15
2022-10-07T03:11:31.828Z,6.05
2022-10-07T03:16:27.000Z,6.85
2022-10-07T03:21:20.377Z,6.47
2022-10-07T03:26:17.619Z,5.53
2022-10-07T03:31:15.551Z,5.82
2022-10-07T03:36:13.926Z,5.25
2022-10-07T03:41:11.658Z,5.70
2022-10-07T03:46:09.572Z,5.90
2022-10-07T03:51:07.151Z,7.00
2022-10-07T03:56:02.470Z,6.88
2022-10-07T04:01:07.615Z,7.75
2022-10-07T04:06:03.991Z,7.20
2022-10-07T04:11:00.773Z,6.28
2022-10-07T04:15:54.980Z,6.45
2022-10-07T04:20:51.022Z,6.63
2022-10-07T04:25:45.223Z,7.10
2022-10-07T04:30:48.211Z,8.35
2022-10-07T04:35:42.007Z,7.90
2022-10-07T04:45:50.252Z,8.07
2022-10-07T04:50:46.470Z,8.02
2022-10-07T04:55:44.042Z,10.32
2022-10-07T05:00:43.532Z,11.27
2022-10-07T05:05:51.353Z,10.63
2022-10-07T05:10:47.586Z,11.98
2022-10-07T05:15:50.007Z,8.98
2022-10-07T05:20:46.585Z,9.43
2022-10-07T05:25:41.607Z,10.52
2022-10-07T05:30:38.904Z,10.07
2022-10-07T05:35:35.305Z,8.75
2022-10-07T05:40:28.832Z,9.63
2022-10-07T05:45:26.027Z,8.43
2022-10-07T05:50:21.647Z,9.00
2022-10-07T05:55:18.294Z,12.55
2022-10-07T06:00:14.116Z,11.43
2022-10-07T06:05:14.758Z,8.85
2022-10-07T06:10:28.297Z,7.05
2022-10-07T06:15:36.727Z,8.20
2022-10-07T06:20:30.895Z,8.30
2022-10-07T06:30:47.526Z,8.63
2022-10-07T06:35:41.692Z,9.52
2022-10-07T06:40:38.966Z,9.82
2022-10-07T06:45:35.614Z,10.35
2022-10-07T06:50:30.625Z,9.43
2022-10-07T06:55:42.622Z,9.30
2022-10-07T07:00:36.774Z,8.77
2022-10-07T07:05:45.323Z,9.77
2022-10-07T07:10:54.607Z,9.10
2022-10-07T07:16:07.104Z,9.27
2022-10-07T07:21:15.617Z,9.57
2022-10-07T07:26:52.542Z,9.23
2022-10-07T07:31:54.651Z,9.65
2022-10-07T07:43:48.704Z,9.23
2022-10-07T07:48:42.142Z,9.20
2022-10-07T07:53:38.014Z,9.98
2022-10-07T07:59:05.797Z,8.70
2022-10-07T08:04:00.950Z,7.63
2022-10-07T08:08:59.278Z,7.75
2022-10-07T08:14:53.878Z,8.35
2022-10-07T08:20:43.383Z,7.88
2022-10-07T08:25:38.656Z,7.75
2022-10-07T08:42:17.051Z,7.18
2022-10-07T08:47:40.129Z,6.67
2022-10-07T08:52:47.232Z,7.35
2022-10-07T08:58:48.586Z,7.10
2022-10-07T09:04:22.308Z,6.47
2022-10-07T09:09:35.563Z,6.78
2022-10-07T09:14:41.659Z,6.50
2022-10-07T09:19:44.925Z,7.00
2022-10-07T09:24:56.842Z,7.20
2022-10-07T09:30:11.057Z,7.47
2022-10-07T09:35:15.471Z,8.65
2022-10-07T09:40:57.990Z,8.40
2022-10-07T09:45:52.831Z,8.48
2022-10-07T09:50:46.884Z,8.02
2022-10-07T09:55:45.629Z,7.60
2022-10-07T10:00:45.156Z,6.93
2022-10-07T10:05:40.508Z,6.55
2022-10-07T10:10:35.209Z,6.97
2022-10-07T10:15:40.186Z,6.53
2022-10-07T10:20:36.173Z,6.30
2022-10-07T10:26:00.081Z,6.38
2022-10-07T10:31:15.761Z,6.10
2022-10-07T10:36:20.110Z,5.90
2022-10-07T10:41:30.195Z,6.55
2022-10-07T10:51:50.153Z,6.07
2022-10-07T10:56:54.125Z,5.50
2022-10-07T11:02:00.501Z,4.72
2022-10-07T11:06:59.475Z,5.38
2022-10-07T11:11:53.621Z,5.00
2022-10-07T11:16:55.343Z,5.38
2022-10-07T11:21:51.854Z,4.72
2022-10-07T11:26:51.013Z,5.43
2022-10-07T11:31:51.276Z,4.13
2022-10-07T11:36:54.062Z,4.95
2022-10-07T11:41:53.378Z,4.22
2022-10-07T11:46:47.550Z,4.43
2022-10-07T11:51:42.576Z,3.95
2022-10-07T11:56:45.406Z,4.38
2022-10-07T12:01:48.638Z,4.82
2022-10-07T12:07:04.106Z,4.80
2022-10-07T12:11:58.860Z,4.65
2022-10-07T12:16:56.226Z,5.43
2022-10-07T12:22:18.803Z,5.82
2022-10-07T12:27:17.343Z,5.60
2022-10-07T12:32:41.543Z,8.02
2022-10-07T12:37:50.350Z,8.50
2022-10-07T12:42:53.377Z,7.95
2022-10-07T12:47:48.402Z,6.13
2022-10-07T12:52:49.626Z,6.00
2022-10-07T12:57:49.692Z,5.20
2022-10-07T13:03:19.742Z,4.55
2022-10-07T13:08:52.093Z,4.18
2022-10-07T13:13:53.074Z,5.15
2022-10-07T13:18:52.150Z,4.35
2022-10-07T13:23:52.821Z,4.00
2022-10-07T13:28:50.114Z,4.50
2022-10-07T13:33:44.591Z,4.47
2022-10-07T13:38:37.832Z,4.18
2022-10-07T13:43:34.553Z,4.85
2022-10-07T13:48:34.385Z,4.30
2022-10-07T13:53:31.716Z,4.70
2022-10-07T13:58:33.325Z,4.18
2022-10-07T14:03:26.490Z,4.40
2022-10-07T14:08:22.592Z,5.22
2022-10-07T14:13:16.689Z,4.90
2022-10-07T14:18:12.426Z,4.90
2022-10-07T14:23:07.406Z,5.07
2022-10-07T14:28:18.106Z,5.10
2022-10-07T14:33:32.996Z,6.05
2022-10-07T14:38:33.232Z,5.38
2022-10-07T14:43:31.056Z,4.70
2022-10-07T14:48:24.278Z,5.50
2022-10-07T14:53:18.416Z,6.63
2022-10-07T14:58:12.397Z,5.43
2022-10-07T15:03:07.414Z,6.43
2022-10-07T15:08:05.265Z,6.47
2022-10-07T15:12:59.400Z,6.18
2022-10-07T15:17:55.207Z,6.53
2022-10-07T15:35:47.746Z,6.45
2022-10-07T15:41:06.436Z,6.35
2022-10-07T15:46:07.699Z,6.93
2022-10-07T15:58:51.321Z,7.05
2022-10-07T16:18:12.684Z,8.85
2022-10-07T17:00:20.595Z,10.90
2022-10-07T17:05:17.465Z,10.50
2022-10-07T17:10:14.533Z,11.07
2022-10-07T17:15:12.498Z,9.50
2022-10-07T17:20:06.605Z,11.25
2022-10-07T17:24:59.968Z,8.52
2022-10-07T17:30:01.255Z,9.32
2022-10-07T17:35:08.683Z,9.10
2022-10-07T17:40:02.600Z,8.82
2022-10-07T17:45:05.068Z,9.18
2022-10-07T17:50:14.417Z,9.30
2022-10-07T17:55:09.276Z,8.90
2022-10-07T18:00:07.047Z,9.40
2022-10-07T18:05:09.709Z,9.52
2022-10-07T18:10:03.351Z,9.43
2022-10-07T18:15:14.254Z,10.65
2022-10-07T18:20:15.556Z,9.20
2022-10-07T18:25:20.602Z,9.45
2022-10-07T18:30:23.154Z,9.35
2022-10-07T18:35:25.766Z,9.05
2022-10-07T18:47:39.313Z,8.00
2022-10-07T18:52:40.021Z,9.45
2022-10-07T18:57:46.137Z,9.32
2022-10-07T19:02:39.769Z,8.55
2022-10-07T19:07:35.605Z,9.40
2022-10-07T19:18:51.385Z,10.73
2022-10-07T19:24:01.538Z,8.93
2022-10-07T19:28:58.525Z,8.93
2022-10-07T19:34:20.447Z,9.48
2022-10-07T19:39:45.392Z,9.35
2022-10-07T19:44:58.036Z,9.20
2022-10-07T19:49:56.871Z,9.63
2022-10-07T19:54:57.279Z,9.73
2022-10-07T19:59:52.818Z,9.60
2022-10-07T20:05:00.288Z,9.45
2022-10-07T20:09:55.129Z,10.40
2022-10-07T20:14:51.424Z,9.80
2022-10-07T20:19:44.734Z,9.70
2022-10-07T20:24:38.849Z,9.93
2022-10-07T20:29:53.947Z,10.18
2022-10-07T20:34:50.371Z,11.45
2022-10-07T20:40:01.088Z,10.82
2022-10-07T20:44:58.682Z,13.73
2022-10-07T20:49:52.203Z,14.98
2022-10-07T20:54:48.530Z,14.15
2022-10-07T20:59:41.986Z,13.70
2022-10-07T21:04:36.984Z,14.25
2022-10-07T21:09:36.636Z,13.40
2022-10-07T21:14:31.716Z,12.73
2022-10-07T21:19:25.680Z,13.50
2022-10-07T21:24:20.475Z,13.60
2022-10-07T21:29:14.736Z,13.23
2022-10-07T21:34:08.679Z,12.98
2022-10-07T21:39:02.204Z,13.00
2022-10-07T21:43:58.451Z,13.07
2022-10-07T21:48:52.233Z,13.98
2022-10-07T21:53:46.169Z,13.70
2022-10-07T21:58:40.576Z,13.25
2022-10-07T22:03:36.094Z,15.10
2022-10-07T22:08:38.144Z,14.02
2022-10-07T22:13:35.354Z,17.73
2022-10-07T22:18:28.480Z,15.50
2022-10-07T22:23:26.224Z,14.13
2022-10-07T22:28:22.996Z,14.77
2022-10-07T22:33:16.337Z,14.73
2022-10-07T22:38:11.201Z,14.48
2022-10-07T22:43:05.969Z,14.30
2022-10-07T22:47:59.160Z,14.07
2022-10-07T22:52:53.083Z,14.98
2022-10-07T22:57:46.271Z,14.13
2022-10-07T23:02:40.849Z,13.80
2022-10-07T23:07:34.217Z,13.25
2022-10-07T23:12:27.487Z,14.05
2022-10-07T23:17:20.694Z,13.43
2022-10-07T23:22:15.224Z,14.50
2022-10-07T23:27:08.373Z,13.18
2022-10-07T23:32:03.850Z,11.98
2022-10-07T23:36:57.049Z,12.23
2022-10-07T23:41:51.678Z,13.90
2022-10-07T23:46:45.064Z,13.35
2022-10-07T23:51:38.486Z,13.43
2022-10-07T23:56:32.426Z,13.23
